Qinhuangdao Beidaihe Airport


Codes: ZBDH/BPE
Name: Qinhuangdao Beidaihe Airport
City: Qinhuangdao
Country: China
Elevation: 46 ft.

Photos at Qinhuangdao Beidaihe Airport


   Photos courtesy of SpottingLog. You can add your own sightings and photos by signing up for a free trial today.



No photos found.

Weather at Qinhuangdao Beidaihe Airport


Time (UTC)DescriptionTempratureWindCloud coverageVisibilityPressureHumidity
16-Jun-2024 12:00Clear Sky32°C11 mph, SW0%10000m1003hPa25%
16-Jun-2024 15:00Clear Sky28°C9 mph, SW1%10000m1004hPa35%
16-Jun-2024 18:00Clear Sky23°C4 mph, W2%10000m1004hPa47%
16-Jun-2024 21:00Clear Sky23°C7 mph, W0%10000m1004hPa51%
17-Jun-2024 00:00Clear Sky30°C11 mph, W1%10000m1003hPa37%
17-Jun-2024 03:00Clear Sky36°C16 mph, W0%10000m1002hPa25%
17-Jun-2024 06:00Clear Sky40°C13 mph, W0%10000m1000hPa13%
17-Jun-2024 09:00Few Clouds37°C20 mph, SW19%10000m999hPa19%
17-Jun-2024 12:00Broken Clouds31°C11 mph, SW52%10000m1000hPa26%
17-Jun-2024 15:00Clear Sky27°C2 mph, SW5%10000m1001hPa38%
17-Jun-2024 18:00Clear Sky25°C4 mph, NE8%10000m1001hPa39%
17-Jun-2024 21:00Scattered Clouds24°C4 mph, S42%10000m1001hPa47%
18-Jun-2024 00:00Few Clouds32°C7 mph, SW22%10000m1002hPa37%
18-Jun-2024 03:00Broken Clouds37°C11 mph, SW73%10000m1001hPa24%
18-Jun-2024 06:00Overcast Clouds40°C16 mph, SW86%10000m1000hPa16%
18-Jun-2024 09:00Scattered Clouds39°C16 mph, SW49%10000m998hPa17%
18-Jun-2024 12:00Broken Clouds30°C11 mph, S55%10000m999hPa34%
18-Jun-2024 15:00Broken Clouds30°C16 mph, SW54%10000m1001hPa31%
18-Jun-2024 18:00Broken Clouds28°C11 mph, SW61%10000m1002hPa34%
18-Jun-2024 21:00Overcast Clouds25°C7 mph, SW85%10000m1003hPa44%
19-Jun-2024 00:00Overcast Clouds30°C11 mph, SW93%10000m1003hPa29%
19-Jun-2024 03:00Overcast Clouds35°C16 mph, SW96%10000m1003hPa17%
19-Jun-2024 06:00Overcast Clouds35°C18 mph, S94%10000m1002hPa16%
19-Jun-2024 09:00Overcast Clouds32°C18 mph, S100%10000m1001hPa28%
19-Jun-2024 12:00Overcast Clouds27°C13 mph, S100%10000m1002hPa39%
19-Jun-2024 15:00Overcast Clouds24°C11 mph, SE100%10000m1003hPa49%
19-Jun-2024 18:00Overcast Clouds21°C7 mph, E96%10000m1003hPa73%
19-Jun-2024 21:00Overcast Clouds20°C7 mph, E99%10000m1003hPa82%
20-Jun-2024 00:00Overcast Clouds24°C7 mph, SE95%10000m1004hPa72%
20-Jun-2024 03:00Overcast Clouds27°C9 mph, SE93%10000m1003hPa65%
20-Jun-2024 06:00Overcast Clouds28°C7 mph, SE97%10000m1002hPa63%
20-Jun-2024 09:00Overcast Clouds26°C9 mph, SE98%10000m1001hPa67%
20-Jun-2024 12:00Light Rain22°C4 mph, E85%10000m1002hPa86%
20-Jun-2024 15:00Light Rain21°C2 mph, E1%10000m1002hPa86%
20-Jun-2024 18:00Few Clouds21°C2 mph, N21%10000m1001hPa85%
20-Jun-2024 21:00Scattered Clouds20°C2 mph, E48%10000m1001hPa83%
21-Jun-2024 00:00Broken Clouds26°C4 mph, SE59%10000m1002hPa57%
21-Jun-2024 03:00Scattered Clouds31°C9 mph, SE44%10000m1001hPa49%
21-Jun-2024 06:00Broken Clouds32°C11 mph, SE67%10000m1000hPa48%
21-Jun-2024 09:00Overcast Clouds27°C9 mph, SE98%10000m1000hPa61%